Wanilla, Mississippi
Current Conditions -  °F | °C
As of 12:35 AM on Monday 26 Jan 2015 (Local Time) from K1R7 Reporting Station
Clear Clear  
Wind Chill: 50°   Ceiling: Unl
Heat Index: 50°   Visibility: NA
Dew Point: 36°   Wind: 10mph
Humidity: 58%   Direction: 290°WNW
Pressure: 29.98"   Gusts: 16mph
Location:  31.4742°N, 90.119°W
Report Text: K1R7 260635Z AUTO 29009G14KT CLR 10/02 A2998 RMK AO2
Loading
Personal Weather Stations






























Interactive Weather Map New forecast layout! Learn more

10-Day Weather Forecast

Advertisements
Track Severe Weather on mobile